sensor_id;sensor_type;location;lat;lon;timestamp;P1;durP1;ratioP1;P2;durP2;ratioP2
18296;SDS011;18066;52.106;5.534;2024-02-28T00:00:06;39.13;;;18.30;;
18296;SDS011;18066;52.106;5.534;2024-02-28T00:02:35;41.73;;;19.70;;
18296;SDS011;18066;52.106;5.534;2024-02-28T00:05:02;43.23;;;20.87;;
18296;SDS011;18066;52.106;5.534;2024-02-28T00:07:31;44.20;;;20.43;;
18296;SDS011;18066;52.106;5.534;2024-02-28T00:09:58;43.07;;;20.60;;
18296;SDS011;18066;52.106;5.534;2024-02-28T00:12:25;41.87;;;20.70;;
18296;SDS011;18066;52.106;5.534;2024-02-28T00:14:52;40.30;;;19.50;;
18296;SDS011;18066;52.106;5.534;2024-02-28T00:17:19;42.40;;;20.20;;
18296;SDS011;18066;52.106;5.534;2024-02-28T00:19:46;40.33;;;19.93;;
18296;SDS011;18066;52.106;5.534;2024-02-28T00:22:12;40.67;;;20.83;;
18296;SDS011;18066;52.106;5.534;2024-02-28T00:24:41;39.07;;;20.03;;
18296;SDS011;18066;52.106;5.534;2024-02-28T00:27:08;44.03;;;19.87;;
18296;SDS011;18066;52.106;5.534;2024-02-28T00:29:35;38.57;;;18.53;;
18296;SDS011;18066;52.106;5.534;2024-02-28T00:32:01;40.53;;;20.17;;
18296;SDS011;18066;52.106;5.534;2024-02-28T00:34:28;41.20;;;19.90;;
18296;SDS011;18066;52.106;5.534;2024-02-28T00:36:55;43.33;;;19.60;;
18296;SDS011;18066;52.106;5.534;2024-02-28T00:39:22;39.43;;;19.03;;
18296;SDS011;18066;52.106;5.534;2024-02-28T00:41:51;41.83;;;19.73;;
18296;SDS011;18066;52.106;5.534;2024-02-28T00:44:18;40.47;;;19.67;;
18296;SDS011;18066;52.106;5.534;2024-02-28T00:46:44;46.30;;;20.40;;
18296;SDS011;18066;52.106;5.534;2024-02-28T00:49:11;46.10;;;20.03;;
18296;SDS011;18066;52.106;5.534;2024-02-28T00:51:38;42.20;;;20.17;;
18296;SDS011;18066;52.106;5.534;2024-02-28T00:54:05;37.87;;;18.73;;
18296;SDS011;18066;52.106;5.534;2024-02-28T00:56:33;37.03;;;18.57;;
18296;SDS011;18066;52.106;5.534;2024-02-28T00:59:01;39.70;;;19.30;;
18296;SDS011;18066;52.106;5.534;2024-02-28T01:01:28;44.28;;;22.70;;
18296;SDS011;18066;52.106;5.534;2024-02-28T01:03:55;39.43;;;20.47;;
18296;SDS011;18066;52.106;5.534;2024-02-28T01:06:22;37.73;;;18.73;;
18296;SDS011;18066;52.106;5.534;2024-02-28T01:08:49;32.53;;;18.60;;
18296;SDS011;18066;52.106;5.534;2024-02-28T01:11:16;38.43;;;18.63;;
18296;SDS011;18066;52.106;5.534;2024-02-28T01:13:43;39.53;;;18.83;;
18296;SDS011;18066;52.106;5.534;2024-02-28T01:16:11;40.50;;;21.13;;
18296;SDS011;18066;52.106;5.534;2024-02-28T01:18:38;52.10;;;20.37;;
18296;SDS011;18066;52.106;5.534;2024-02-28T01:21:05;54.43;;;18.40;;
18296;SDS011;18066;52.106;5.534;2024-02-28T01:23:32;33.20;;;17.77;;
18296;SDS011;18066;52.106;5.534;2024-02-28T01:25:59;33.83;;;17.30;;
18296;SDS011;18066;52.106;5.534;2024-02-28T01:28:28;38.93;;;17.70;;
18296;SDS011;18066;52.106;5.534;2024-02-28T01:30:55;43.10;;;22.27;;
18296;SDS011;18066;52.106;5.534;2024-02-28T01:33:23;37.50;;;17.03;;
18296;SDS011;18066;52.106;5.534;2024-02-28T01:35:50;35.90;;;16.70;;
18296;SDS011;18066;52.106;5.534;2024-02-28T01:38:17;36.63;;;17.10;;
18296;SDS011;18066;52.106;5.534;2024-02-28T01:40:44;42.27;;;19.10;;
18296;SDS011;18066;52.106;5.534;2024-02-28T01:43:11;31.50;;;17.67;;
18296;SDS011;18066;52.106;5.534;2024-02-28T01:45:38;30.67;;;16.05;;
18296;SDS011;18066;52.106;5.534;2024-02-28T01:48:06;39.93;;;16.13;;
18296;SDS011;18066;52.106;5.534;2024-02-28T01:50:37;37.33;;;16.37;;
18296;SDS011;18066;52.106;5.534;2024-02-28T01:53:04;37.13;;;16.70;;
18296;SDS011;18066;52.106;5.534;2024-02-28T01:55:33;47.93;;;16.27;;
18296;SDS011;18066;52.106;5.534;2024-02-28T01:58:00;30.70;;;15.87;;
18296;SDS011;18066;52.106;5.534;2024-02-28T02:00:30;35.43;;;16.47;;
18296;SDS011;18066;52.106;5.534;2024-02-28T02:02:59;33.97;;;16.33;;
18296;SDS011;18066;52.106;5.534;2024-02-28T02:05:26;29.13;;;16.00;;
18296;SDS011;18066;52.106;5.534;2024-02-28T02:07:55;38.73;;;15.97;;
18296;SDS011;18066;52.106;5.534;2024-02-28T02:10:23;31.13;;;16.33;;
18296;SDS011;18066;52.106;5.534;2024-02-28T02:12:51;26.00;;;15.20;;
18296;SDS011;18066;52.106;5.534;2024-02-28T02:15:18;27.80;;;16.95;;
18296;SDS011;18066;52.106;5.534;2024-02-28T02:17:45;34.70;;;15.70;;
18296;SDS011;18066;52.106;5.534;2024-02-28T02:20:12;25.57;;;14.03;;
18296;SDS011;18066;52.106;5.534;2024-02-28T02:22:42;33.60;;;16.83;;
18296;SDS011;18066;52.106;5.534;2024-02-28T02:25:09;29.53;;;14.67;;
18296;SDS011;18066;52.106;5.534;2024-02-28T02:27:36;28.47;;;15.50;;
18296;SDS011;18066;52.106;5.534;2024-02-28T02:30:04;32.25;;;17.20;;
18296;SDS011;18066;52.106;5.534;2024-02-28T02:32:31;24.63;;;14.70;;
18296;SDS011;18066;52.106;5.534;2024-02-28T02:34:58;28.17;;;15.53;;
18296;SDS011;18066;52.106;5.534;2024-02-28T02:37:25;22.47;;;14.20;;
18296;SDS011;18066;52.106;5.534;2024-02-28T02:39:53;29.40;;;14.73;;
18296;SDS011;18066;52.106;5.534;2024-02-28T02:42:20;26.53;;;14.50;;
18296;SDS011;18066;52.106;5.534;2024-02-28T02:44:47;24.53;;;13.83;;
18296;SDS011;18066;52.106;5.534;2024-02-28T02:47:14;29.60;;;16.20;;
18296;SDS011;18066;52.106;5.534;2024-02-28T02:49:41;26.57;;;14.20;;
18296;SDS011;18066;52.106;5.534;2024-02-28T02:52:08;26.07;;;15.57;;
18296;SDS011;18066;52.106;5.534;2024-02-28T02:54:36;25.27;;;15.07;;
18296;SDS011;18066;52.106;5.534;2024-02-28T02:57:04;25.67;;;14.40;;
18296;SDS011;18066;52.106;5.534;2024-02-28T02:59:31;27.60;;;16.58;;
18296;SDS011;18066;52.106;5.534;2024-02-28T03:01:58;24.13;;;14.97;;
18296;SDS011;18066;52.106;5.534;2024-02-28T03:04:25;27.33;;;15.30;;
18296;SDS011;18066;52.106;5.534;2024-02-28T03:06:51;24.50;;;14.37;;
18296;SDS011;18066;52.106;5.534;2024-02-28T03:09:18;32.63;;;16.53;;
18296;SDS011;18066;52.106;5.534;2024-02-28T03:11:45;27.37;;;14.97;;
18296;SDS011;18066;52.106;5.534;2024-02-28T03:14:13;26.10;;;15.33;;
18296;SDS011;18066;52.106;5.534;2024-02-28T03:16:41;26.77;;;14.83;;
18296;SDS011;18066;52.106;5.534;2024-02-28T03:19:08;27.40;;;14.33;;
18296;SDS011;18066;52.106;5.534;2024-02-28T03:21:35;25.77;;;14.63;;
18296;SDS011;18066;52.106;5.534;2024-02-28T03:24:03;24.40;;;13.73;;
18296;SDS011;18066;52.106;5.534;2024-02-28T03:26:30;28.87;;;15.67;;
18296;SDS011;18066;52.106;5.534;2024-02-28T03:28:56;23.43;;;14.17;;
18296;SDS011;18066;52.106;5.534;2024-02-28T03:31:25;24.07;;;14.43;;
18296;SDS011;18066;52.106;5.534;2024-02-28T03:33:52;23.87;;;14.37;;
18296;SDS011;18066;52.106;5.534;2024-02-28T03:36:19;24.47;;;13.83;;
18296;SDS011;18066;52.106;5.534;2024-02-28T03:38:46;23.80;;;13.83;;
18296;SDS011;18066;52.106;5.534;2024-02-28T03:41:13;26.33;;;15.07;;
18296;SDS011;18066;52.106;5.534;2024-02-28T03:43:40;24.27;;;14.13;;
18296;SDS011;18066;52.106;5.534;2024-02-28T03:46:07;24.27;;;14.07;;
18296;SDS011;18066;52.106;5.534;2024-02-28T03:48:36;21.73;;;13.13;;
18296;SDS011;18066;52.106;5.534;2024-02-28T03:51:03;24.63;;;13.57;;
18296;SDS011;18066;52.106;5.534;2024-02-28T03:53:30;25.07;;;13.83;;
18296;SDS011;18066;52.106;5.534;2024-02-28T03:55:57;21.93;;;13.43;;
18296;SDS011;18066;52.106;5.534;2024-02-28T03:58:24;22.90;;;12.83;;
18296;SDS011;18066;52.106;5.534;2024-02-28T04:00:50;23.83;;;14.13;;
18296;SDS011;18066;52.106;5.534;2024-02-28T04:03:17;24.43;;;13.53;;
18296;SDS011;18066;52.106;5.534;2024-02-28T04:05:46;21.63;;;13.37;;
18296;SDS011;18066;52.106;5.534;2024-02-28T04:08:12;22.87;;;12.73;;
18296;SDS011;18066;52.106;5.534;2024-02-28T04:10:39;21.83;;;12.33;;
18296;SDS011;18066;52.106;5.534;2024-02-28T04:13:06;18.63;;;12.13;;
18296;SDS011;18066;52.106;5.534;2024-02-28T04:15:34;18.27;;;11.83;;
18296;SDS011;18066;52.106;5.534;2024-02-28T04:18:02;18.77;;;12.50;;
18296;SDS011;18066;52.106;5.534;2024-02-28T04:20:29;19.53;;;11.73;;
18296;SDS011;18066;52.106;5.534;2024-02-28T04:22:57;18.07;;;11.43;;
18296;SDS011;18066;52.106;5.534;2024-02-28T04:25:24;19.77;;;12.23;;
18296;SDS011;18066;52.106;5.534;2024-02-28T04:27:51;20.83;;;11.43;;
18296;SDS011;18066;52.106;5.534;2024-02-28T04:30:18;25.43;;;12.53;;
18296;SDS011;18066;52.106;5.534;2024-02-28T04:32:45;20.73;;;12.20;;
18296;SDS011;18066;52.106;5.534;2024-02-28T04:35:12;18.30;;;11.37;;
18296;SDS011;18066;52.106;5.534;2024-02-28T04:37:40;17.67;;;11.70;;
18296;SDS011;18066;52.106;5.534;2024-02-28T04:40:09;20.00;;;12.27;;
18296;SDS011;18066;52.106;5.534;2024-02-28T04:42:37;20.60;;;12.52;;
18296;SDS011;18066;52.106;5.534;2024-02-28T04:45:05;21.73;;;11.00;;
18296;SDS011;18066;52.106;5.534;2024-02-28T04:47:33;16.60;;;10.90;;
18296;SDS011;18066;52.106;5.534;2024-02-28T04:49:59;19.83;;;11.97;;
18296;SDS011;18066;52.106;5.534;2024-02-28T04:52:26;17.67;;;11.27;;
18296;SDS011;18066;52.106;5.534;2024-02-28T04:54:53;17.67;;;11.63;;
18296;SDS011;18066;52.106;5.534;2024-02-28T04:57:21;21.03;;;11.93;;
18296;SDS011;18066;52.106;5.534;2024-02-28T04:59:48;18.50;;;11.30;;
18296;SDS011;18066;52.106;5.534;2024-02-28T05:02:15;17.93;;;11.03;;
18296;SDS011;18066;52.106;5.534;2024-02-28T05:04:42;16.37;;;11.87;;
18296;SDS011;18066;52.106;5.534;2024-02-28T05:07:09;16.60;;;11.50;;
18296;SDS011;18066;52.106;5.534;2024-02-28T05:09:36;20.97;;;11.53;;
18296;SDS011;18066;52.106;5.534;2024-02-28T05:12:03;17.37;;;11.53;;
18296;SDS011;18066;52.106;5.534;2024-02-28T05:14:31;18.40;;;11.60;;
18296;SDS011;18066;52.106;5.534;2024-02-28T05:16:58;17.53;;;11.07;;
18296;SDS011;18066;52.106;5.534;2024-02-28T05:19:25;17.70;;;11.43;;
18296;SDS011;18066;52.106;5.534;2024-02-28T05:21:52;20.00;;;12.63;;
18296;SDS011;18066;52.106;5.534;2024-02-28T05:24:19;20.10;;;12.73;;
18296;SDS011;18066;52.106;5.534;2024-02-28T05:26:46;19.13;;;11.63;;
18296;SDS011;18066;52.106;5.534;2024-02-28T05:29:13;20.90;;;14.30;;
18296;SDS011;18066;52.106;5.534;2024-02-28T05:31:41;18.20;;;10.57;;
18296;SDS011;18066;52.106;5.534;2024-02-28T05:34:08;19.07;;;11.60;;
18296;SDS011;18066;52.106;5.534;2024-02-28T05:36:34;17.33;;;11.20;;
18296;SDS011;18066;52.106;5.534;2024-02-28T05:39:01;18.40;;;11.33;;
18296;SDS011;18066;52.106;5.534;2024-02-28T05:41:30;18.73;;;12.10;;
18296;SDS011;18066;52.106;5.534;2024-02-28T05:43:57;18.77;;;13.63;;
18296;SDS011;18066;52.106;5.534;2024-02-28T05:46:24;19.57;;;11.77;;
18296;SDS011;18066;52.106;5.534;2024-02-28T05:48:52;17.20;;;11.10;;
18296;SDS011;18066;52.106;5.534;2024-02-28T05:51:19;22.63;;;12.43;;
18296;SDS011;18066;52.106;5.534;2024-02-28T05:53:47;17.10;;;10.60;;
18296;SDS011;18066;52.106;5.534;2024-02-28T05:56:14;17.30;;;10.83;;
18296;SDS011;18066;52.106;5.534;2024-02-28T05:58:45;17.63;;;11.13;;
18296;SDS011;18066;52.106;5.534;2024-02-28T06:01:14;18.03;;;11.33;;
18296;SDS011;18066;52.106;5.534;2024-02-28T06:03:42;17.70;;;11.53;;
18296;SDS011;18066;52.106;5.534;2024-02-28T06:06:12;17.60;;;11.20;;
18296;SDS011;18066;52.106;5.534;2024-02-28T06:08:39;15.27;;;11.07;;
18296;SDS011;18066;52.106;5.534;2024-02-28T06:11:07;16.67;;;10.90;;
18296;SDS011;18066;52.106;5.534;2024-02-28T06:13:34;22.33;;;14.55;;
18296;SDS011;18066;52.106;5.534;2024-02-28T06:16:01;17.87;;;11.63;;
18296;SDS011;18066;52.106;5.534;2024-02-28T06:18:29;17.73;;;11.90;;
18296;SDS011;18066;52.106;5.534;2024-02-28T06:20:58;19.73;;;12.60;;
18296;SDS011;18066;52.106;5.534;2024-02-28T06:23:27;18.90;;;12.17;;
18296;SDS011;18066;52.106;5.534;2024-02-28T06:25:55;17.60;;;11.73;;
18296;SDS011;18066;52.106;5.534;2024-02-28T06:28:22;20.10;;;14.00;;
18296;SDS011;18066;52.106;5.534;2024-02-28T06:30:49;18.17;;;12.43;;
18296;SDS011;18066;52.106;5.534;2024-02-28T06:33:16;16.93;;;11.33;;
18296;SDS011;18066;52.106;5.534;2024-02-28T06:35:43;16.77;;;11.00;;
18296;SDS011;18066;52.106;5.534;2024-02-28T06:38:10;18.33;;;11.20;;
18296;SDS011;18066;52.106;5.534;2024-02-28T06:40:39;18.47;;;11.53;;
18296;SDS011;18066;52.106;5.534;2024-02-28T06:43:06;33.08;;;15.48;;
18296;SDS011;18066;52.106;5.534;2024-02-28T06:45:33;22.97;;;12.37;;
18296;SDS011;18066;52.106;5.534;2024-02-28T06:48:00;16.60;;;10.73;;
18296;SDS011;18066;52.106;5.534;2024-02-28T06:50:28;20.70;;;12.50;;
18296;SDS011;18066;52.106;5.534;2024-02-28T06:52:58;22.70;;;11.93;;
18296;SDS011;18066;52.106;5.534;2024-02-28T06:55:25;18.37;;;11.93;;
18296;SDS011;18066;52.106;5.534;2024-02-28T06:57:54;20.80;;;12.20;;
18296;SDS011;18066;52.106;5.534;2024-02-28T07:00:29;17.70;;;11.70;;
18296;SDS011;18066;52.106;5.534;2024-02-28T07:03:13;21.80;;;13.17;;
18296;SDS011;18066;52.106;5.534;2024-02-28T07:05:42;17.93;;;12.20;;
18296;SDS011;18066;52.106;5.534;2024-02-28T07:08:17;20.50;;;12.33;;
18296;SDS011;18066;52.106;5.534;2024-02-28T07:10:48;19.37;;;12.43;;
18296;SDS011;18066;52.106;5.534;2024-02-28T07:13:20;18.73;;;11.83;;
18296;SDS011;18066;52.106;5.534;2024-02-28T07:15:49;21.97;;;12.93;;
18296;SDS011;18066;52.106;5.534;2024-02-28T07:18:20;20.43;;;12.50;;
18296;SDS011;18066;52.106;5.534;2024-02-28T07:20:47;17.60;;;12.73;;
18296;SDS011;18066;52.106;5.534;2024-02-28T07:23:17;22.27;;;13.13;;
18296;SDS011;18066;52.106;5.534;2024-02-28T07:25:44;21.17;;;13.17;;
18296;SDS011;18066;52.106;5.534;2024-02-28T07:28:11;21.37;;;13.37;;
18296;SDS011;18066;52.106;5.534;2024-02-28T07:30:46;24.60;;;14.30;;
18296;SDS011;18066;52.106;5.534;2024-02-28T07:33:13;19.20;;;12.70;;
18296;SDS011;18066;52.106;5.534;2024-02-28T07:35:44;20.87;;;12.83;;
18296;SDS011;18066;52.106;5.534;2024-02-28T07:38:11;20.43;;;13.20;;
18296;SDS011;18066;52.106;5.534;2024-02-28T07:40:44;24.37;;;14.03;;
18296;SDS011;18066;52.106;5.534;2024-02-28T07:43:18;25.97;;;13.13;;
18296;SDS011;18066;52.106;5.534;2024-02-28T07:45:46;18.87;;;13.23;;
18296;SDS011;18066;52.106;5.534;2024-02-28T07:48:16;23.17;;;15.40;;
18296;SDS011;18066;52.106;5.534;2024-02-28T07:50:44;21.50;;;13.43;;
18296;SDS011;18066;52.106;5.534;2024-02-28T07:53:14;23.57;;;14.40;;
18296;SDS011;18066;52.106;5.534;2024-02-28T07:55:41;23.43;;;14.33;;
18296;SDS011;18066;52.106;5.534;2024-02-28T07:58:10;21.60;;;13.60;;
18296;SDS011;18066;52.106;5.534;2024-02-28T08:00:38;27.70;;;15.37;;
18296;SDS011;18066;52.106;5.534;2024-02-28T08:06:39;23.20;;;15.27;;
18296;SDS011;18066;52.106;5.534;2024-02-28T08:09:09;22.93;;;14.70;;
18296;SDS011;18066;52.106;5.534;2024-02-28T08:11:41;20.30;;;13.73;;
18296;SDS011;18066;52.106;5.534;2024-02-28T08:14:08;21.63;;;14.03;;
18296;SDS011;18066;52.106;5.534;2024-02-28T08:29:17;25.77;;;15.57;;
18296;SDS011;18066;52.106;5.534;2024-02-28T08:31:44;25.03;;;15.93;;
18296;SDS011;18066;52.106;5.534;2024-02-28T08:34:11;26.30;;;16.07;;
18296;SDS011;18066;52.106;5.534;2024-02-28T08:36:38;35.27;;;15.50;;
18296;SDS011;18066;52.106;5.534;2024-02-28T08:39:04;28.00;;;15.90;;
18296;SDS011;18066;52.106;5.534;2024-02-28T08:41:34;27.10;;;16.53;;
18296;SDS011;18066;52.106;5.534;2024-02-28T08:44:01;26.77;;;16.13;;
18296;SDS011;18066;52.106;5.534;2024-02-28T08:46:29;34.83;;;16.93;;
18296;SDS011;18066;52.106;5.534;2024-02-28T08:48:56;21.23;;;15.37;;
18296;SDS011;18066;52.106;5.534;2024-02-28T08:51:23;24.70;;;16.80;;
18296;SDS011;18066;52.106;5.534;2024-02-28T08:53:50;26.90;;;16.47;;
18296;SDS011;18066;52.106;5.534;2024-02-28T08:56:18;28.00;;;17.40;;
18296;SDS011;18066;52.106;5.534;2024-02-28T08:58:45;28.90;;;16.40;;
18296;SDS011;18066;52.106;5.534;2024-02-28T09:01:15;29.73;;;18.13;;
18296;SDS011;18066;52.106;5.534;2024-02-28T09:03:44;27.90;;;16.13;;
18296;SDS011;18066;52.106;5.534;2024-02-28T09:06:11;27.30;;;17.27;;
18296;SDS011;18066;52.106;5.534;2024-02-28T09:08:37;24.53;;;16.83;;
18296;SDS011;18066;52.106;5.534;2024-02-28T09:11:04;31.20;;;16.70;;
18296;SDS011;18066;52.106;5.534;2024-02-28T09:13:31;24.03;;;17.10;;
18296;SDS011;18066;52.106;5.534;2024-02-28T09:16:00;26.40;;;16.37;;
18296;SDS011;18066;52.106;5.534;2024-02-28T09:18:27;27.27;;;16.20;;
18296;SDS011;18066;52.106;5.534;2024-02-28T09:20:55;22.90;;;16.57;;
18296;SDS011;18066;52.106;5.534;2024-02-28T09:23:22;32.10;;;18.17;;
18296;SDS011;18066;52.106;5.534;2024-02-28T09:25:49;29.73;;;16.80;;
18296;SDS011;18066;52.106;5.534;2024-02-28T09:28:16;31.80;;;17.70;;
18296;SDS011;18066;52.106;5.534;2024-02-28T09:30:43;28.93;;;16.70;;
18296;SDS011;18066;52.106;5.534;2024-02-28T09:33:12;29.27;;;17.63;;
18296;SDS011;18066;52.106;5.534;2024-02-28T09:35:39;29.63;;;17.10;;
18296;SDS011;18066;52.106;5.534;2024-02-28T09:38:08;29.73;;;16.37;;
18296;SDS011;18066;52.106;5.534;2024-02-28T09:40:35;24.77;;;16.23;;
18296;SDS011;18066;52.106;5.534;2024-02-28T09:43:02;27.03;;;16.73;;
18296;SDS011;18066;52.106;5.534;2024-02-28T09:45:30;30.07;;;17.17;;
18296;SDS011;18066;52.106;5.534;2024-02-28T09:47:57;28.80;;;19.95;;
18296;SDS011;18066;52.106;5.534;2024-02-28T09:50:25;29.43;;;17.57;;
18296;SDS011;18066;52.106;5.534;2024-02-28T09:52:53;27.30;;;17.13;;
18296;SDS011;18066;52.106;5.534;2024-02-28T09:55:20;27.67;;;18.60;;
18296;SDS011;18066;52.106;5.534;2024-02-28T09:57:47;34.10;;;16.77;;
18296;SDS011;18066;52.106;5.534;2024-02-28T10:00:15;28.97;;;17.57;;
18296;SDS011;18066;52.106;5.534;2024-02-28T10:02:47;25.20;;;16.53;;
18296;SDS011;18066;52.106;5.534;2024-02-28T10:05:14;26.30;;;16.60;;
18296;SDS011;18066;52.106;5.534;2024-02-28T10:07:43;27.93;;;17.60;;
18296;SDS011;18066;52.106;5.534;2024-02-28T10:10:11;28.57;;;18.77;;
18296;SDS011;18066;52.106;5.534;2024-02-28T10:12:41;27.77;;;18.13;;
18296;SDS011;18066;52.106;5.534;2024-02-28T10:15:09;29.20;;;18.27;;
18296;SDS011;18066;52.106;5.534;2024-02-28T10:17:36;30.63;;;18.53;;
18296;SDS011;18066;52.106;5.534;2024-02-28T10:20:04;36.37;;;20.33;;
18296;SDS011;18066;52.106;5.534;2024-02-28T10:22:34;31.83;;;19.00;;
18296;SDS011;18066;52.106;5.534;2024-02-28T10:25:01;33.47;;;19.40;;
18296;SDS011;18066;52.106;5.534;2024-02-28T10:27:31;28.00;;;19.43;;
18296;SDS011;18066;52.106;5.534;2024-02-28T10:30:00;33.30;;;19.73;;
18296;SDS011;18066;52.106;5.534;2024-02-28T10:32:29;41.93;;;21.90;;
18296;SDS011;18066;52.106;5.534;2024-02-28T10:34:56;35.43;;;19.80;;
18296;SDS011;18066;52.106;5.534;2024-02-28T10:37:25;36.33;;;20.07;;
18296;SDS011;18066;52.106;5.534;2024-02-28T10:39:55;33.53;;;19.70;;
18296;SDS011;18066;52.106;5.534;2024-02-28T10:42:27;30.63;;;19.87;;
18296;SDS011;18066;52.106;5.534;2024-02-28T10:44:57;41.63;;;25.80;;
18296;SDS011;18066;52.106;5.534;2024-02-28T10:47:26;38.20;;;20.80;;
18296;SDS011;18066;52.106;5.534;2024-02-28T10:50:08;36.43;;;20.53;;
18296;SDS011;18066;52.106;5.534;2024-02-28T10:52:43;35.83;;;21.03;;
18296;SDS011;18066;52.106;5.534;2024-02-28T10:55:13;35.43;;;19.67;;
18296;SDS011;18066;52.106;5.534;2024-02-28T10:57:48;31.90;;;18.93;;
18296;SDS011;18066;52.106;5.534;2024-02-28T11:00:21;29.43;;;18.23;;
18296;SDS011;18066;52.106;5.534;2024-02-28T11:02:49;33.67;;;18.70;;
18296;SDS011;18066;52.106;5.534;2024-02-28T11:05:17;33.43;;;18.97;;
18296;SDS011;18066;52.106;5.534;2024-02-28T11:07:50;32.13;;;19.53;;
18296;SDS011;18066;52.106;5.534;2024-02-28T11:10:17;33.60;;;20.20;;
18296;SDS011;18066;52.106;5.534;2024-02-28T11:12:54;29.70;;;19.07;;
18296;SDS011;18066;52.106;5.534;2024-02-28T11:15:24;32.97;;;20.70;;
18296;SDS011;18066;52.106;5.534;2024-02-28T11:17:53;37.33;;;20.80;;
18296;SDS011;18066;52.106;5.534;2024-02-28T11:20:20;34.57;;;20.27;;
18296;SDS011;18066;52.106;5.534;2024-02-28T11:22:48;31.77;;;20.00;;
18296;SDS011;18066;52.106;5.534;2024-02-28T11:25:26;36.87;;;20.93;;
18296;SDS011;18066;52.106;5.534;2024-02-28T11:27:53;38.03;;;23.95;;
18296;SDS011;18066;52.106;5.534;2024-02-28T11:30:24;35.63;;;20.47;;
18296;SDS011;18066;52.106;5.534;2024-02-28T11:32:57;32.30;;;19.90;;
18296;SDS011;18066;52.106;5.534;2024-02-28T11:35:31;33.77;;;19.83;;
18296;SDS011;18066;52.106;5.534;2024-02-28T11:38:11;31.70;;;18.40;;
18296;SDS011;18066;52.106;5.534;2024-02-28T11:40:49;28.50;;;17.97;;
18296;SDS011;18066;52.106;5.534;2024-02-28T11:43:18;33.23;;;22.97;;
18296;SDS011;18066;52.106;5.534;2024-02-28T11:45:48;29.93;;;19.90;;
18296;SDS011;18066;52.106;5.534;2024-02-28T11:51:07;33.47;;;18.40;;
18296;SDS011;18066;52.106;5.534;2024-02-28T11:53:37;32.20;;;18.73;;
18296;SDS011;18066;52.106;5.534;2024-02-28T11:56:04;26.43;;;17.83;;
18296;SDS011;18066;52.106;5.534;2024-02-28T11:58:50;34.57;;;18.07;;
18296;SDS011;18066;52.106;5.534;2024-02-28T12:01:32;37.77;;;17.37;;
18296;SDS011;18066;52.106;5.534;2024-02-28T12:04:04;30.17;;;16.50;;
18296;SDS011;18066;52.106;5.534;2024-02-28T12:06:32;30.07;;;18.40;;
18296;SDS011;18066;52.106;5.534;2024-02-28T12:09:06;31.80;;;16.53;;
18296;SDS011;18066;52.106;5.534;2024-02-28T12:11:43;27.80;;;17.40;;
18296;SDS011;18066;52.106;5.534;2024-02-28T12:14:10;31.23;;;20.45;;
18296;SDS011;18066;52.106;5.534;2024-02-28T12:16:38;31.57;;;19.30;;
18296;SDS011;18066;52.106;5.534;2024-02-28T12:19:08;31.50;;;17.53;;
18296;SDS011;18066;52.106;5.534;2024-02-28T12:21:36;30.80;;;18.83;;
18296;SDS011;18066;52.106;5.534;2024-02-28T12:24:03;30.30;;;18.57;;
18296;SDS011;18066;52.106;5.534;2024-02-28T12:26:30;30.00;;;17.17;;
18296;SDS011;18066;52.106;5.534;2024-02-28T12:28:57;31.47;;;17.20;;
18296;SDS011;18066;52.106;5.534;2024-02-28T12:31:24;28.63;;;16.73;;
18296;SDS011;18066;52.106;5.534;2024-02-28T12:33:53;32.23;;;17.67;;
18296;SDS011;18066;52.106;5.534;2024-02-28T12:36:21;28.43;;;16.33;;
18296;SDS011;18066;52.106;5.534;2024-02-28T12:38:50;31.53;;;15.43;;
18296;SDS011;18066;52.106;5.534;2024-02-28T12:41:17;27.20;;;15.27;;
18296;SDS011;18066;52.106;5.534;2024-02-28T12:43:44;29.30;;;16.43;;
18296;SDS011;18066;52.106;5.534;2024-02-28T12:46:14;28.77;;;16.50;;
18296;SDS011;18066;52.106;5.534;2024-02-28T12:48:40;28.43;;;16.57;;
18296;SDS011;18066;52.106;5.534;2024-02-28T12:51:10;26.87;;;16.17;;
18296;SDS011;18066;52.106;5.534;2024-02-28T12:53:41;27.10;;;16.67;;
18296;SDS011;18066;52.106;5.534;2024-02-28T12:56:08;34.87;;;16.60;;
18296;SDS011;18066;52.106;5.534;2024-02-28T12:58:34;27.40;;;15.80;;
18296;SDS011;18066;52.106;5.534;2024-02-28T13:01:01;26.03;;;14.70;;
18296;SDS011;18066;52.106;5.534;2024-02-28T13:03:29;24.33;;;15.53;;
18296;SDS011;18066;52.106;5.534;2024-02-28T13:05:56;29.90;;;15.93;;
18296;SDS011;18066;52.106;5.534;2024-02-28T13:08:23;24.13;;;15.13;;
18296;SDS011;18066;52.106;5.534;2024-02-28T13:10:51;28.27;;;15.63;;
18296;SDS011;18066;52.106;5.534;2024-02-28T13:13:19;24.10;;;16.17;;
18296;SDS011;18066;52.106;5.534;2024-02-28T13:15:46;27.53;;;17.23;;
18296;SDS011;18066;52.106;5.534;2024-02-28T13:18:14;29.07;;;18.00;;
18296;SDS011;18066;52.106;5.534;2024-02-28T13:20:40;29.03;;;17.70;;
18296;SDS011;18066;52.106;5.534;2024-02-28T13:23:07;29.43;;;18.20;;
18296;SDS011;18066;52.106;5.534;2024-02-28T13:25:35;32.20;;;17.73;;
18296;SDS011;18066;52.106;5.534;2024-02-28T13:28:03;30.50;;;18.70;;
18296;SDS011;18066;52.106;5.534;2024-02-28T13:30:47;27.70;;;17.93;;
18296;SDS011;18066;52.106;5.534;2024-02-28T13:33:51;28.47;;;17.90;;
18296;SDS011;18066;52.106;5.534;2024-02-28T13:37:43;30.03;;;17.33;;
18296;SDS011;18066;52.106;5.534;2024-02-28T13:47:29;27.47;;;16.77;;
18296;SDS011;18066;52.106;5.534;2024-02-28T13:50:43;31.30;;;16.10;;
18296;SDS011;18066;52.106;5.534;2024-02-28T13:53:39;26.43;;;16.00;;
18296;SDS011;18066;52.106;5.534;2024-02-28T13:56:44;24.97;;;16.03;;
18296;SDS011;18066;52.106;5.534;2024-02-28T14:25:47;19.67;;;11.57;;
18296;SDS011;18066;52.106;5.534;2024-02-28T14:28:54;17.33;;;11.27;;
18296;SDS011;18066;52.106;5.534;2024-02-28T14:31:54;18.73;;;11.77;;
18296;SDS011;18066;52.106;5.534;2024-02-28T14:34:34;17.50;;;11.97;;
18296;SDS011;18066;52.106;5.534;2024-02-28T14:40:14;18.77;;;11.93;;
18296;SDS011;18066;52.106;5.534;2024-02-28T14:43:00;25.27;;;12.77;;
18296;SDS011;18066;52.106;5.534;2024-02-28T14:45:48;20.80;;;11.93;;
18296;SDS011;18066;52.106;5.534;2024-02-28T14:51:50;17.97;;;11.60;;
18296;SDS011;18066;52.106;5.534;2024-02-28T14:54:21;17.10;;;11.00;;
18296;SDS011;18066;52.106;5.534;2024-02-28T14:57:36;16.43;;;10.33;;
18296;SDS011;18066;52.106;5.534;2024-02-28T15:03:53;16.77;;;10.97;;
18296;SDS011;18066;52.106;5.534;2024-02-28T15:06:20;22.50;;;10.90;;
18296;SDS011;18066;52.106;5.534;2024-02-28T15:09:07;22.57;;;12.47;;
18296;SDS011;18066;52.106;5.534;2024-02-28T15:11:56;21.90;;;11.77;;
18296;SDS011;18066;52.106;5.534;2024-02-28T15:15:10;15.93;;;9.87;;
18296;SDS011;18066;52.106;5.534;2024-02-28T15:21:47;17.77;;;12.03;;
18296;SDS011;18066;52.106;5.534;2024-02-28T15:24:39;18.53;;;11.10;;
18296;SDS011;18066;52.106;5.534;2024-02-28T15:27:37;20.63;;;11.50;;
18296;SDS011;18066;52.106;5.534;2024-02-28T15:30:27;17.57;;;11.07;;
18296;SDS011;18066;52.106;5.534;2024-02-28T15:34:15;20.20;;;11.63;;
18296;SDS011;18066;52.106;5.534;2024-02-28T15:36:17;20.53;;;12.20;;
18296;SDS011;18066;52.106;5.534;2024-02-28T15:39:09;18.63;;;11.20;;
18296;SDS011;18066;52.106;5.534;2024-02-28T15:41:39;19.73;;;12.20;;
18296;SDS011;18066;52.106;5.534;2024-02-28T15:47:45;18.10;;;11.67;;